Time;durP1;ratioP1;P1;durP2;ratioP2;P2;SDS_P1;SDS_P2;PMS_P1;PMS_P2;Temp;Humidity;BMP_temperature;BMP_pressure;BME280_temperature;BME280_humidity;BME280_pressure;Samples;Min_cycle;Max_cycle;Signal;HPM_P1;HPM_P2
2022/05/15 00:01:01;;;;;;;19.50;5.97;;;9.70;99.90;;;;;;6155235;23;20119;-86
2022/05/15 00:03:27;;;;;;;23.77;6.10;;;9.70;99.90;;;;;;6154321;23;20436;-86
2022/05/15 00:05:57;;;;;;;23.17;6.55;;;9.70;99.90;;;;;;6152588;23;20134;-86
2022/05/15 00:08:23;;;;;;;23.25;6.18;;;9.70;99.90;;;;;;6154591;23;20032;-86
2022/05/15 00:10:49;;;;;;;24.23;6.30;;;9.70;99.90;;;;;;6155562;23;20010;-86
2022/05/15 00:13:16;;;;;;;27.58;6.53;;;9.60;99.90;;;;;;6155733;23;20384;-86
2022/05/15 00:15:41;;;;;;;23.67;7.00;;;9.60;99.90;;;;;;6155476;23;20092;-87
2022/05/15 00:18:08;;;;;;;21.05;6.50;;;9.60;99.90;;;;;;6155834;23;20049;-87
2022/05/15 00:20:35;;;;;;;23.70;6.40;;;9.60;99.90;;;;;;6152983;23;20009;-87
2022/05/15 00:23:01;;;;;;;23.75;7.07;;;9.50;99.90;;;;;;6155464;23;20021;-86
2022/05/15 00:25:27;;;;;;;22.35;6.30;;;9.50;99.90;;;;;;6155406;23;20018;-86
2022/05/15 00:27:52;;;;;;;26.35;6.85;;;9.50;99.90;;;;;;6153903;23;20451;-87
2022/05/15 00:30:20;;;;;;;25.42;6.70;;;9.40;99.90;;;;;;6153563;23;20028;-86
2022/05/15 00:32:47;;;;;;;18.48;6.47;;;9.40;99.90;;;;;;6154249;23;20108;-86
2022/05/15 00:35:12;;;;;;;20.92;6.47;;;9.30;99.90;;;;;;6153300;23;20021;-86
2022/05/15 00:37:38;;;;;;;23.05;6.68;;;9.20;99.90;;;;;;6155520;23;20017;-87
2022/05/15 00:40:06;;;;;;;25.85;7.20;;;9.20;99.90;;;;;;6154327;23;20009;-86
2022/05/15 00:42:32;;;;;;;18.70;6.05;;;9.20;99.90;;;;;;6155420;23;20021;-87
2022/05/15 00:44:57;;;;;;;22.55;6.03;;;9.10;99.90;;;;;;6156352;23;20010;-87
2022/05/15 00:47:23;;;;;;;23.73;7.25;;;9.10;99.90;;;;;;6155492;23;20330;-86
2022/05/15 00:49:50;;;;;;;23.63;6.80;;;9.00;99.90;;;;;;6156756;23;20021;-86
2022/05/15 00:52:19;;;;;;;21.45;6.30;;;9.00;99.90;;;;;;6156879;23;20021;-86
2022/05/15 00:54:53;;;;;;;23.60;6.55;;;8.90;99.90;;;;;;6153814;23;20025;-86
2022/05/15 00:57:26;;;;;;;23.33;6.45;;;8.90;99.90;;;;;;6157294;23;20025;-86
2022/05/15 00:59:58;;;;;;;23.48;6.75;;;8.90;99.90;;;;;;6155185;23;20088;-86
2022/05/15 01:02:27;;;;;;;22.50;6.22;;;8.80;99.90;;;;;;6156227;23;20032;-86
2022/05/15 01:04:52;;;;;;;21.20;6.05;;;8.70;99.90;;;;;;6156850;23;20018;-86
2022/05/15 01:07:18;;;;;;;22.23;6.63;;;8.70;99.90;;;;;;6155126;23;20020;-86
2022/05/15 01:09:45;;;;;;;24.00;6.50;;;8.70;99.90;;;;;;6156122;23;20077;-86
2022/05/15 01:12:11;;;;;;;23.95;6.95;;;8.70;99.90;;;;;;6155337;23;20021;-86
2022/05/15 01:14:40;;;;;;;23.00;6.20;;;8.70;99.90;;;;;;6157264;23;20096;-85
2022/05/15 01:17:06;;;;;;;20.48;6.25;;;8.70;99.90;;;;;;6155737;23;20470;-86
2022/05/15 01:19:34;;;;;;;21.08;6.80;;;8.60;99.90;;;;;;6157222;23;20018;-85
2022/05/15 01:22:01;;;;;;;25.17;7.65;;;8.60;99.90;;;;;;6155940;23;20014;-86
2022/05/15 01:24:27;;;;;;;19.85;6.95;;;8.60;99.90;;;;;;6154899;23;20449;-86
2022/05/15 01:26:54;;;;;;;22.60;5.68;;;8.60;99.90;;;;;;6156761;23;20029;-86
2022/05/15 01:29:32;;;;;;;22.45;5.97;;;8.50;99.90;;;;;;6153694;23;20409;-86
2022/05/15 01:31:58;;;;;;;25.35;7.18;;;8.50;99.90;;;;;;6154609;23;20049;-86
2022/05/15 01:34:23;;;;;;;24.65;8.65;;;8.50;99.90;;;;;;6154941;23;20061;-86
2022/05/15 01:36:50;;;;;;;28.27;7.30;;;8.50;99.90;;;;;;6155096;23;20021;-86
2022/05/15 01:39:16;;;;;;;24.95;6.45;;;8.50;99.90;;;;;;6154827;23;20453;-86
2022/05/15 01:41:41;;;;;;;21.38;6.60;;;8.40;99.90;;;;;;6154495;23;20018;-86
2022/05/15 01:44:07;;;;;;;21.58;6.85;;;8.40;99.90;;;;;;6155814;23;20022;-86
2022/05/15 01:46:32;;;;;;;26.98;7.18;;;8.40;99.90;;;;;;6155100;23;20017;-87
2022/05/15 01:48:59;;;;;;;19.10;6.60;;;8.40;99.90;;;;;;6156881;23;20021;-85
2022/05/15 01:51:25;;;;;;;21.63;6.47;;;8.30;99.90;;;;;;6155824;23;20025;-86
2022/05/15 01:53:51;;;;;;;23.25;6.75;;;8.30;99.90;;;;;;6156176;23;20453;-86
2022/05/15 01:56:18;;;;;;;23.48;7.50;;;8.30;99.90;;;;;;6154644;23;20084;-85
2022/05/15 01:58:43;;;;;;;24.95;7.10;;;8.30;99.90;;;;;;6153374;23;20036;-86
2022/05/15 02:01:09;;;;;;;21.65;6.40;;;8.20;99.90;;;;;;6156659;23;20013;-86
2022/05/15 02:03:35;;;;;;;24.17;6.97;;;8.20;99.90;;;;;;6154937;23;20434;-86
2022/05/15 02:06:02;;;;;;;22.27;7.05;;;8.20;99.90;;;;;;6153051;23;20021;-86
2022/05/15 02:08:31;;;;;;;19.48;6.38;;;8.20;99.90;;;;;;6157133;23;20017;-86
2022/05/15 02:10:57;;;;;;;20.83;6.50;;;8.10;99.90;;;;;;6156088;23;20021;-86
2022/05/15 02:13:22;;;;;;;23.45;6.80;;;8.10;99.90;;;;;;6155883;23;20018;-86
2022/05/15 02:15:49;;;;;;;21.55;7.22;;;8.10;99.90;;;;;;6156241;23;20064;-86
2022/05/15 02:18:15;;;;;;;21.05;7.55;;;8.00;99.90;;;;;;6153229;23;20048;-86
2022/05/15 02:20:40;;;;;;;17.02;6.53;;;7.90;99.90;;;;;;6156001;23;20013;-86
2022/05/15 02:23:06;;;;;;;20.02;7.72;;;7.90;99.90;;;;;;6154688;23;20021;-86
2022/05/15 02:25:32;;;;;;;21.38;6.60;;;7.90;99.90;;;;;;6155477;23;20010;-86
2022/05/15 02:27:58;;;;;;;21.85;6.47;;;7.80;99.90;;;;;;6154202;23;20842;-86
2022/05/15 02:30:24;;;;;;;23.45;6.93;;;7.80;99.90;;;;;;6156663;23;20016;-86
2022/05/15 02:32:50;;;;;;;23.30;7.20;;;7.80;99.90;;;;;;6153331;23;20021;-86
2022/05/15 02:35:16;;;;;;;23.58;6.70;;;7.70;99.90;;;;;;6156785;23;20089;-86
2022/05/15 02:37:44;;;;;;;19.60;6.50;;;7.70;99.90;;;;;;6154303;23;20018;-86
2022/05/15 02:40:12;;;;;;;19.67;6.72;;;7.70;99.90;;;;;;6153276;23;20017;-86
2022/05/15 02:42:38;;;;;;;19.40;6.63;;;7.60;99.90;;;;;;6156487;23;20028;-86
2022/05/15 02:45:06;;;;;;;18.98;6.50;;;7.60;99.90;;;;;;6156066;23;20013;-86
2022/05/15 02:47:31;;;;;;;19.35;6.40;;;7.60;99.90;;;;;;6153419;23;20087;-86
2022/05/15 02:52:42;;;;;;;24.67;6.85;;;7.50;99.90;;;;;;6155419;23;20029;-87
2022/05/15 02:55:08;;;;;;;22.33;7.18;;;7.50;99.90;;;;;;6152758;23;20072;-86
2022/05/15 02:57:33;;;;;;;20.55;7.00;;;7.40;99.90;;;;;;6157154;23;20022;-86
2022/05/15 02:59:59;;;;;;;19.15;7.00;;;7.40;99.90;;;;;;6155615;23;20022;-86
2022/05/15 03:02:25;;;;;;;21.63;7.60;;;7.40;99.90;;;;;;6153017;23;20023;-86
2022/05/15 03:04:51;;;;;;;27.98;7.18;;;7.40;99.90;;;;;;6153450;23;20583;-86
2022/05/15 03:07:17;;;;;;;23.15;6.78;;;7.30;99.90;;;;;;6153460;23;20446;-86
2022/05/15 03:09:43;;;;;;;23.02;7.00;;;7.30;99.90;;;;;;6154465;23;20021;-87
2022/05/15 03:12:09;;;;;;;19.48;6.43;;;7.30;99.90;;;;;;6155362;23;20014;-86
2022/05/15 03:14:34;;;;;;;19.38;6.75;;;7.30;99.90;;;;;;6152822;23;20096;-86
2022/05/15 03:17:00;;;;;;;25.60;7.10;;;7.30;99.90;;;;;;6153302;23;20017;-86
2022/05/15 03:19:26;;;;;;;19.58;6.78;;;7.20;99.90;;;;;;6155731;23;20023;-86
2022/05/15 03:21:52;;;;;;;21.50;7.50;;;7.20;99.90;;;;;;6152270;23;20015;-86
2022/05/15 03:24:18;;;;;;;19.17;6.95;;;7.20;99.90;;;;;;6153860;23;20032;-86
2022/05/15 03:26:46;;;;;;;18.75;6.72;;;7.20;99.90;;;;;;6153337;23;20017;-87
2022/05/15 03:29:13;;;;;;;19.20;7.07;;;7.10;99.90;;;;;;6154852;23;20014;-86
2022/05/15 03:31:39;;;;;;;22.10;6.82;;;7.10;99.90;;;;;;6155358;23;20014;-87
2022/05/15 03:34:07;;;;;;;20.90;6.95;;;7.10;99.90;;;;;;6155629;23;20013;-87
2022/05/15 03:36:34;;;;;;;27.08;7.78;;;7.10;99.90;;;;;;6154502;23;20025;-86
2022/05/15 03:39:00;;;;;;;19.20;6.82;;;7.10;99.90;;;;;;6155456;23;20051;-87
2022/05/15 03:41:27;;;;;;;28.33;7.22;;;7.20;99.90;;;;;;6153656;23;20327;-86
2022/05/15 03:43:53;;;;;;;19.25;7.43;;;7.10;99.90;;;;;;6152478;23;20022;-87
2022/05/15 03:46:19;;;;;;;21.05;7.28;;;7.10;99.90;;;;;;6153606;23;20093;-86
2022/05/15 03:48:44;;;;;;;19.87;6.90;;;7.20;99.90;;;;;;6153223;23;20014;-86
2022/05/15 03:51:10;;;;;;;21.17;7.50;;;7.20;99.90;;;;;;6152433;23;20025;-86
2022/05/15 03:53:35;;;;;;;22.83;7.68;;;7.20;99.90;;;;;;6155310;23;20025;-87
2022/05/15 03:56:03;;;;;;;22.95;7.22;;;7.20;99.90;;;;;;6153658;23;20017;-87
2022/05/15 03:58:33;;;;;;;18.85;6.78;;;7.20;99.90;;;;;;6154379;23;20024;-86
2022/05/15 04:00:59;;;;;;;20.58;7.35;;;7.20;99.90;;;;;;6153703;23;20410;-87
2022/05/15 04:03:24;;;;;;;26.33;7.45;;;7.20;99.90;;;;;;6153448;23;20044;-86
2022/05/15 04:05:50;;;;;;;27.30;7.50;;;7.30;99.90;;;;;;6151735;23;20053;-86
2022/05/15 04:08:16;;;;;;;26.60;7.63;;;7.30;99.90;;;;;;6154949;23;20043;-86
2022/05/15 04:10:41;;;;;;;22.75;7.53;;;7.40;99.90;;;;;;6151855;23;20075;-86
2022/05/15 04:13:07;;;;;;;25.35;8.07;;;7.40;99.90;;;;;;6154003;23;20069;-87
2022/05/15 04:15:33;;;;;;;21.80;8.38;;;7.40;99.90;;;;;;6155852;23;20025;-87
2022/05/15 04:17:58;;;;;;;25.13;7.57;;;7.40;99.90;;;;;;6154658;23;20167;-87
2022/05/15 04:20:27;;;;;;;24.73;7.03;;;7.50;99.90;;;;;;6156712;23;20010;-86
2022/05/15 04:22:53;;;;;;;22.05;7.28;;;7.50;99.90;;;;;;6158217;23;20028;-87
2022/05/15 04:25:20;;;;;;;21.52;7.07;;;7.60;99.90;;;;;;6156912;23;20352;-86
2022/05/15 04:27:46;;;;;;;22.35;7.63;;;7.70;99.90;;;;;;6156895;23;20018;-86
2022/05/15 04:30:15;;;;;;;25.17;8.35;;;7.80;99.90;;;;;;6157420;23;20014;-86
2022/05/15 04:32:41;;;;;;;26.88;8.50;;;7.80;99.90;;;;;;6155827;23;20013;-86
2022/05/15 04:35:08;;;;;;;28.40;8.10;;;7.90;99.90;;;;;;6157604;23;20020;-86
2022/05/15 04:37:34;;;;;;;22.38;8.07;;;8.00;99.90;;;;;;6155378;23;20105;-86
2022/05/15 04:40:00;;;;;;;20.83;7.90;;;8.10;99.90;;;;;;6154054;23;20048;-86
2022/05/15 04:42:25;;;;;;;27.38;7.88;;;8.10;99.90;;;;;;6157298;23;20319;-86
2022/05/15 04:44:51;;;;;;;27.08;8.90;;;8.10;99.90;;;;;;6155657;23;20018;-86
2022/05/15 04:47:16;;;;;;;24.00;7.60;;;8.20;99.90;;;;;;6154990;23;20343;-86
2022/05/15 04:49:43;;;;;;;27.35;8.18;;;8.30;99.90;;;;;;6157206;23;20018;-86
2022/05/15 04:52:10;;;;;;;20.90;8.13;;;8.40;99.90;;;;;;6155509;23;20450;-86
2022/05/15 04:54:36;;;;;;;25.65;8.18;;;8.40;99.90;;;;;;6155002;23;20009;-86
2022/05/15 04:57:02;;;;;;;25.58;8.38;;;8.50;99.90;;;;;;6155377;23;20023;-86
2022/05/15 04:59:27;;;;;;;23.58;7.97;;;8.60;99.90;;;;;;6157747;23;20092;-89
2022/05/15 05:01:53;;;;;;;21.75;7.43;;;8.70;99.90;;;;;;6156297;23;20022;-86
2022/05/15 05:04:18;;;;;;;22.48;8.32;;;8.70;99.90;;;;;;6157740;23;20545;-86
2022/05/15 05:06:44;;;;;;;27.48;7.50;;;8.80;99.90;;;;;;6156925;23;20500;-86
2022/05/15 05:09:11;;;;;;;27.98;8.30;;;8.80;99.90;;;;;;6154999;23;20020;-86
2022/05/15 05:11:37;;;;;;;23.08;8.25;;;8.90;99.90;;;;;;6156833;23;20036;-86
2022/05/15 05:14:03;;;;;;;28.00;7.68;;;8.90;99.90;;;;;;6155707;23;20053;-86
2022/05/15 05:16:30;;;;;;;25.75;8.25;;;9.00;99.90;;;;;;6154905;23;20025;-86
2022/05/15 05:18:56;;;;;;;25.08;7.80;;;9.10;99.90;;;;;;6154734;23;20097;-86
2022/05/15 05:21:22;;;;;;;24.83;7.97;;;9.20;99.90;;;;;;6155954;23;20048;-86
2022/05/15 05:23:47;;;;;;;23.48;8.00;;;9.20;99.90;;;;;;6156102;23;20022;-86
2022/05/15 05:26:13;;;;;;;24.95;8.60;;;9.20;99.90;;;;;;6156644;23;20092;-86
2022/05/15 05:28:39;;;;;;;28.13;7.90;;;9.30;99.90;;;;;;6153622;23;20351;-86
2022/05/15 05:31:05;;;;;;;22.60;7.70;;;9.40;99.90;;;;;;6155894;23;20014;-86
2022/05/15 05:33:31;;;;;;;19.35;7.07;;;9.40;99.90;;;;;;6156256;23;20018;-86
2022/05/15 05:35:56;;;;;;;19.80;7.10;;;9.50;99.90;;;;;;6155424;23;20100;-86
2022/05/15 05:38:22;;;;;;;22.83;7.88;;;9.60;99.90;;;;;;6156946;23;20028;-86
2022/05/15 05:40:48;;;;;;;18.05;7.28;;;9.70;99.90;;;;;;6156300;23;20013;-86
2022/05/15 05:43:13;;;;;;;26.70;8.23;;;9.80;99.90;;;;;;6153998;23;20028;-86
2022/05/15 05:45:39;;;;;;;26.27;8.63;;;9.90;99.90;;;;;;6153987;23;20019;-86
2022/05/15 05:48:05;;;;;;;23.00;7.72;;;9.90;99.90;;;;;;6156657;23;20013;-86
2022/05/15 05:50:32;;;;;;;20.40;7.25;;;10.10;99.90;;;;;;6155703;23;20010;-86
2022/05/15 05:52:58;;;;;;;20.38;7.38;;;10.20;99.90;;;;;;6156262;23;20018;-86
2022/05/15 05:55:25;;;;;;;24.48;7.38;;;10.30;99.90;;;;;;6154404;23;20017;-86
2022/05/15 05:57:51;;;;;;;24.60;6.93;;;10.40;99.90;;;;;;6153722;23;20076;-86
2022/05/15 06:00:43;;;;;;;23.88;7.38;;;10.60;99.90;;;;;;6157048;23;20100;-86
2022/05/15 06:05:54;;;;;;;23.30;6.50;;;10.80;99.90;;;;;;6154139;23;20184;-87
2022/05/15 06:08:20;;;;;;;21.70;6.95;;;10.90;99.90;;;;;;6154559;23;20053;-87
2022/05/15 06:10:47;;;;;;;22.35;7.30;;;11.10;99.90;;;;;;6154856;23;20021;-86
2022/05/15 06:13:13;;;;;;;24.33;6.63;;;11.10;99.90;;;;;;6156368;23;20022;-86
2022/05/15 06:15:39;;;;;;;21.05;6.95;;;11.20;99.90;;;;;;6153689;23;20017;-87
2022/05/15 06:18:06;;;;;;;20.52;6.70;;;11.40;99.90;;;;;;6155476;23;20010;-87
2022/05/15 06:20:32;;;;;;;21.40;6.35;;;11.50;99.90;;;;;;6156330;23;20024;-87
2022/05/15 06:22:58;;;;;;;21.10;6.57;;;11.60;99.90;;;;;;6153829;23;20024;-88
2022/05/15 06:25:23;;;;;;;21.10;6.43;;;11.80;99.90;;;;;;6153321;23;20033;-86
2022/05/15 06:27:49;;;;;;;18.58;6.72;;;12.40;99.90;;;;;;6155359;23;20022;-84
2022/05/15 06:30:16;;;;;;;19.05;5.90;;;12.10;99.90;;;;;;6156273;23;20089;-87
2022/05/15 06:32:42;;;;;;;17.42;6.13;;;12.20;99.90;;;;;;6154061;23;20009;-88
2022/05/15 06:35:09;;;;;;;19.42;5.97;;;12.30;99.90;;;;;;6155944;23;20144;-85
2022/05/15 06:37:34;;;;;;;18.75;5.18;;;12.40;99.90;;;;;;6156336;23;20024;-87
2022/05/15 06:40:00;;;;;;;14.75;4.75;;;12.50;99.90;;;;;;6154999;23;20021;-86
2022/05/15 06:42:28;;;;;;;18.02;5.00;;;12.70;99.90;;;;;;6155927;23;20092;-85
2022/05/15 06:44:54;;;;;;;15.30;4.85;;;12.90;99.90;;;;;;6153980;23;20022;-86
2022/05/15 06:47:21;;;;;;;14.85;4.78;;;13.10;99.90;;;;;;6155417;23;20013;-87
2022/05/15 06:49:46;;;;;;;17.10;6.28;;;13.20;99.90;;;;;;6155672;23;20016;-86
2022/05/15 06:52:12;;;;;;;16.42;5.45;;;13.80;99.90;;;;;;6155893;23;20667;-89
2022/05/15 06:54:40;;;;;;;18.45;4.95;;;13.50;99.90;;;;;;6153260;23;20334;-87
2022/05/15 06:59:50;;;;;;;18.38;5.88;;;13.70;99.90;;;;;;6154613;23;20029;-87
2022/05/15 07:02:16;;;;;;;15.98;5.18;;;13.90;99.90;;;;;;6155490;23;20040;-88
2022/05/15 07:04:42;;;;;;;16.70;4.90;;;14.00;99.90;;;;;;6157975;23;20153;-88
2022/05/15 07:07:08;;;;;;;15.35;5.25;;;14.20;99.90;;;;;;6154053;23;20145;-85
2022/05/15 07:09:34;;;;;;;14.43;4.72;;;14.30;99.90;;;;;;6154842;23;20017;-85
2022/05/15 07:12:00;;;;;;;17.50;5.35;;;14.40;99.90;;;;;;6154228;23;20064;-85
2022/05/15 07:14:26;;;;;;;16.02;5.50;;;14.60;99.90;;;;;;6154881;23;20018;-86
2022/05/15 07:16:51;;;;;;;14.20;4.68;;;14.80;99.90;;;;;;6154367;23;20044;-86
2022/05/15 07:19:17;;;;;;;13.60;4.80;;;14.90;99.90;;;;;;6155393;23;20022;-86
2022/05/15 07:21:43;;;;;;;14.93;4.82;;;15.00;99.90;;;;;;6154004;23;20025;-85
2022/05/15 07:24:10;;;;;;;15.93;4.82;;;15.20;99.90;;;;;;6153371;23;20052;-85
2022/05/15 07:26:35;;;;;;;13.98;4.38;;;15.30;99.90;;;;;;6155521;23;20063;-86
2022/05/15 07:29:01;;;;;;;20.23;4.70;;;15.70;99.90;;;;;;6154283;23;20014;-85
2022/05/15 07:31:26;;;;;;;12.77;4.32;;;15.60;99.90;;;;;;6155075;23;20017;-85
2022/05/15 07:33:52;;;;;;;17.55;4.90;;;15.70;99.90;;;;;;6152730;23;20025;-85
2022/05/15 07:36:18;;;;;;;13.23;4.18;;;15.80;99.90;;;;;;6154189;23;20113;-85
2022/05/15 07:38:44;;;;;;;16.15;4.00;;;15.90;99.90;;;;;;6154796;23;20044;-85
2022/05/15 07:41:10;;;;;;;17.13;4.85;;;16.00;99.90;;;;;;6155519;23;20013;-84
2022/05/15 07:43:35;;;;;;;14.45;4.47;;;16.20;99.90;;;;;;6152634;23;20018;-85
2022/05/15 07:46:02;;;;;;;14.48;4.00;;;16.40;99.90;;;;;;6152946;23;20092;-85
2022/05/15 07:48:27;;;;;;;16.85;4.07;;;16.60;99.90;;;;;;6155017;23;20021;-84
2022/05/15 07:50:55;;;;;;;17.55;5.20;;;16.70;99.90;;;;;;6153953;23;20025;-85
2022/05/15 07:53:21;;;;;;;14.98;4.00;;;16.80;99.90;;;;;;6153479;23;20145;-86
2022/05/15 07:55:47;;;;;;;14.55;3.95;;;16.90;99.90;;;;;;6152115;23;20458;-85
2022/05/15 07:58:12;;;;;;;13.38;3.78;;;17.00;99.90;;;;;;6155368;23;20013;-86
2022/05/15 08:00:38;;;;;;;16.15;4.20;;;17.20;99.90;;;;;;6155483;23;20021;-86
2022/05/15 08:03:09;;;;;;;12.77;4.10;;;17.30;99.90;;;;;;6154482;23;20049;-86
2022/05/15 08:08:21;;;;;;;16.27;3.90;;;17.50;99.90;;;;;;6155492;23;20053;-86
2022/05/15 08:10:49;;;;;;;13.95;3.85;;;17.60;99.90;;;;;;6153813;23;20013;-86
2022/05/15 08:13:18;;;;;;;12.80;3.53;;;17.80;99.90;;;;;;6153539;23;20447;-87
2022/05/15 08:15:45;;;;;;;18.75;4.57;;;17.90;99.90;;;;;;6154484;23;20092;-85
2022/05/15 08:23:45;;;;;;;16.63;3.80;;;18.20;99.90;;;;;;6154533;23;20446;-87
2022/05/15 08:26:11;;;;;;;12.52;3.60;;;18.30;99.90;;;;;;6152666;23;20014;-87
2022/05/15 08:28:37;;;;;;;17.35;3.58;;;18.50;99.90;;;;;;6153236;23;20022;-87
2022/05/15 08:31:04;;;;;;;15.85;4.15;;;18.60;99.90;;;;;;6154320;23;20059;-87
2022/05/15 08:33:31;;;;;;;13.38;4.00;;;18.70;99.90;;;;;;6153405;23;20055;-87
2022/05/15 08:35:57;;;;;;;16.40;4.22;;;18.80;99.90;;;;;;6154960;23;20064;-89
2022/05/15 08:38:23;;;;;;;13.68;3.83;;;18.90;99.90;;;;;;6150918;23;20022;-86
2022/05/15 08:41:03;;;;;;;17.92;4.55;;;19.00;99.90;;;;;;6152400;23;20167;-86
2022/05/15 08:43:42;;;;;;;16.67;4.63;;;19.10;99.90;;;;;;6153079;23;20014;-86
2022/05/15 08:46:29;;;;;;;16.05;4.20;;;19.20;99.90;;;;;;6154099;23;20493;-87
2022/05/15 08:49:16;;;;;;;15.18;4.00;;;19.40;99.90;;;;;;6152884;23;20026;-87
2022/05/15 08:51:59;;;;;;;19.40;4.85;;;19.60;99.90;;;;;;6154402;23;20017;-86
2022/05/15 08:54:26;;;;;;;15.63;4.33;;;19.70;99.90;;;;;;6152889;23;20076;-86
2022/05/15 08:56:52;;;;;;;15.18;3.63;;;19.70;99.90;;;;;;6153036;23;20470;-87
2022/05/15 08:59:32;;;;;;;15.40;4.10;;;19.90;99.90;;;;;;6155060;23;20025;-86
2022/05/15 09:02:00;;;;;;;16.65;4.18;;;20.10;99.90;;;;;;6153619;23;20323;-87
2022/05/15 09:04:27;;;;;;;15.30;3.90;;;20.00;99.90;;;;;;6153082;23;20010;-86
2022/05/15 09:07:19;;;;;;;14.55;4.57;;;20.00;99.90;;;;;;6152121;23;20021;-87
2022/05/15 09:10:09;;;;;;;16.17;4.25;;;20.20;99.90;;;;;;6139720;23;20381;-86
2022/05/15 09:12:36;;;;;;;15.20;3.95;;;20.30;99.90;;;;;;6140475;23;20018;-85
2022/05/15 09:15:22;;;;;;;13.20;3.80;;;20.40;99.90;;;;;;6155656;23;20024;-88
2022/05/15 09:18:03;;;;;;;15.57;3.88;;;20.50;99.90;;;;;;6154426;23;20021;-86
2022/05/15 09:21:09;;;;;;;15.77;4.30;;;20.60;99.90;;;;;;6155799;23;20032;-89
2022/05/15 09:23:39;;;;;;;14.05;4.10;;;20.80;99.90;;;;;;6156932;23;20017;-88
2022/05/15 09:26:16;;;;;;;14.70;4.43;;;20.80;99.90;;;;;;6156276;23;20025;-89
2022/05/15 09:28:49;;;;;;;16.52;4.18;;;20.90;99.90;;;;;;6153424;23;20021;-86
2022/05/15 09:31:28;;;;;;;16.90;4.30;;;21.10;99.90;;;;;;6156752;23;20010;-87
2022/05/15 09:34:04;;;;;;;17.05;4.25;;;21.20;99.90;;;;;;6156438;23;20453;-86
2022/05/15 09:36:41;;;;;;;13.82;3.78;;;21.30;99.90;;;;;;6155699;23;20013;-86
2022/05/15 09:39:27;;;;;;;14.73;4.35;;;21.40;99.90;;;;;;6156173;23;20076;-87
2022/05/15 09:45:25;;;;;;;16.67;4.35;;;21.60;99.90;;;;;;6156489;23;20072;-87
2022/05/15 09:47:51;;;;;;;17.05;4.38;;;21.70;99.90;;;;;;6156031;23;20056;-88
2022/05/15 09:50:37;;;;;;;16.20;4.85;;;21.60;99.90;;;;;;6153927;23;20675;-87
2022/05/15 09:53:10;;;;;;;16.58;4.38;;;21.80;98.70;;;;;;6154235;23;20067;-88
2022/05/15 09:55:35;;;;;;;16.15;4.40;;;21.90;98.70;;;;;;6155139;23;20029;-88
2022/05/15 09:58:05;;;;;;;17.27;4.45;;;22.00;99.10;;;;;;6155204;23;20017;-87
2022/05/15 10:00:34;;;;;;;17.20;4.47;;;22.00;99.00;;;;;;6154974;23;20013;-87
2022/05/15 10:03:15;;;;;;;15.35;4.53;;;22.20;98.50;;;;;;6153756;23;20530;-88
2022/05/15 10:05:41;;;;;;;14.25;4.25;;;22.40;98.40;;;;;;6154652;23;20446;-89
2022/05/15 10:08:19;;;;;;;18.17;4.65;;;22.60;98.20;;;;;;6154455;23;20037;-88
2022/05/15 10:10:53;;;;;;;16.95;4.45;;;22.60;97.70;;;;;;6153438;23;20018;-87
2022/05/15 10:13:40;;;;;;;14.15;4.68;;;22.80;96.80;;;;;;6157146;23;20374;-89
2022/05/15 10:16:28;;;;;;;15.80;4.45;;;23.10;96.80;;;;;;6155918;23;20014;-88
2022/05/15 10:19:16;;;;;;;16.15;4.43;;;22.90;96.80;;;;;;6154030;23;20072;-89
2022/05/15 10:21:47;;;;;;;15.32;4.20;;;22.90;96.50;;;;;;6155587;23;20446;-89
2022/05/15 10:24:18;;;;;;;15.38;4.15;;;22.90;96.20;;;;;;6155506;23;20013;-88
2022/05/15 10:27:10;;;;;;;14.32;4.10;;;23.00;96.30;;;;;;6155378;23;20036;-88
2022/05/15 10:29:43;;;;;;;15.82;4.57;;;23.00;95.20;;;;;;6156751;23;20048;-88
2022/05/15 10:32:27;;;;;;;17.05;4.30;;;23.30;95.50;;;;;;6155155;23;20029;-88
2022/05/15 10:34:53;;;;;;;15.38;4.30;;;23.30;95.10;;;;;;6155378;23;20500;-88
2022/05/15 10:37:43;;;;;;;16.25;4.45;;;23.50;94.90;;;;;;6156135;23;20100;-88
2022/05/15 10:40:52;;;;;;;15.40;4.05;;;23.60;93.60;;;;;;6157178;23;20076;-95
2022/05/15 10:43:35;;;;;;;15.93;4.40;;;23.60;93.40;;;;;;6154603;23;20048;-96
2022/05/15 10:46:13;;;;;;;;;;;23.60;93.60;;;;;;6155825;23;20024;-94
2022/05/15 10:49:01;;;;;;;16.45;4.40;;;23.60;92.30;;;;;;6155759;23;20211;-93
2022/05/15 10:51:59;;;;;;;14.65;4.20;;;23.70;93.10;;;;;;6156378;23;20049;-92
2022/05/15 10:57:32;;;;;;;14.77;4.03;;;23.60;93.20;;;;;;6157099;23;20026;-92
2022/05/15 11:00:10;;;;;;;12.18;3.80;;;23.80;91.80;;;;;;6156642;23;20060;-92
2022/05/15 11:02:59;;;;;;;12.15;3.80;;;23.90;92.20;;;;;;6156611;23;20049;-91
2022/05/15 11:05:30;;;;;;;15.60;4.40;;;24.00;92.10;;;;;;6116505;23;20017;-90
2022/05/15 11:08:05;;;;;;;15.57;4.10;;;24.20;91.50;;;;;;6173596;23;20025;-89
2022/05/15 11:10:46;;;;;;;13.07;4.00;;;24.30;91.90;;;;;;6156854;23;20021;-89
2022/05/15 11:13:22;;;;;;;16.92;3.90;;;24.40;91.40;;;;;;6155377;23;20029;-88
2022/05/15 11:16:23;;;;;;;17.00;4.53;;;24.40;91.60;;;;;;6155515;23;20037;-88
2022/05/15 11:19:02;;;;;;;18.13;4.55;;;24.60;91.60;;;;;;6090830;23;20449;-94
2022/05/15 11:21:59;;;;;;;14.50;4.18;;;24.60;90.60;;;;;;6154848;23;20022;-91
2022/05/15 11:25:00;;;;;;;13.10;3.85;;;24.60;90.00;;;;;;6156149;23;20024;-89
2022/05/15 11:27:41;;;;;;;13.32;4.07;;;24.50;90.10;;;;;;6154607;23;20044;-90
2022/05/15 11:30:21;;;;;;;13.90;4.55;;;24.30;90.60;;;;;;6153893;23;20017;-90
2022/05/15 11:32:47;;;;;;;13.98;3.90;;;24.20;89.60;;;;;;6155483;23;20040;-92
2022/05/15 11:35:24;;;;;;;13.55;3.78;;;24.10;90.00;;;;;;6153804;23;20021;-92
2022/05/15 11:37:56;;;;;;;16.15;3.95;;;24.30;89.30;;;;;;6155120;23;20024;-90
2022/05/15 11:40:40;;;;;;;15.18;3.75;;;24.80;90.40;;;;;;6156360;23;20018;-92
2022/05/15 11:43:30;;;;;;;15.70;4.03;;;24.60;89.50;;;;;;6154560;23;20091;-90
2022/05/15 11:46:06;;;;;;;12.73;3.72;;;24.60;89.40;;;;;;6154262;23;20018;-91
2022/05/15 11:48:37;;;;;;;16.60;3.92;;;24.70;88.90;;;;;;6154363;23;20022;-90
2022/05/15 11:51:14;;;;;;;12.93;3.50;;;24.70;87.60;;;;;;6153211;23;20057;-89
2022/05/15 11:54:04;;;;;;;12.25;3.70;;;24.80;86.90;;;;;;6153731;23;20025;-90
2022/05/15 11:56:59;;;;;;;12.88;3.67;;;25.00;86.30;;;;;;6153277;23;20076;-91
2022/05/15 11:59:32;;;;;;;13.40;3.50;;;25.10;87.10;;;;;;6146961;23;20022;-84
2022/05/15 12:02:04;;;;;;;12.73;3.80;;;25.30;85.30;;;;;;6154628;23;20013;-87
2022/05/15 12:04:36;;;;;;;13.70;4.05;;;24.90;86.60;;;;;;6155876;23;20018;-89
2022/05/15 12:07:01;;;;;;;12.73;3.67;;;25.50;86.40;;;;;;6155179;23;20025;-91
2022/05/15 12:09:44;;;;;;;12.68;3.60;;;25.20;85.40;;;;;;6153015;23;20067;-90
2022/05/15 12:12:27;;;;;;;14.38;4.05;;;25.50;85.10;;;;;;6154996;23;20024;-91
2022/05/15 12:15:16;;;;;;;13.07;3.72;;;25.50;83.20;;;;;;6153319;23;20018;-90
2022/05/15 12:17:52;;;;;;;14.23;3.80;;;26.00;85.50;;;;;;6154788;23;20372;-90
2022/05/15 12:20:47;;;;;;;12.77;3.63;;;26.80;84.20;;;;;;6158907;23;20045;-91
2022/05/15 12:23:31;;;;;;;12.13;3.58;;;26.50;81.80;;;;;;6146653;23;20506;-91
2022/05/15 12:26:26;;;;;;;16.55;3.97;;;27.10;82.90;;;;;;6153187;23;20029;-93
2022/05/15 12:29:32;;;;;;;15.88;4.63;;;26.40;82.40;;;;;;6112594;23;20064;-89
2022/05/15 12:32:01;;;;;;;12.48;3.70;;;26.50;80.50;;;;;;6151964;23;20025;-89
2022/05/15 12:34:47;;;;;;;12.98;4.07;;;26.60;80.20;;;;;;6155616;23;20044;-89
2022/05/15 12:37:37;;;;;;;13.10;4.05;;;26.70;80.80;;;;;;6152776;23;20017;-89
2022/05/15 12:40:03;;;;;;;13.20;3.92;;;26.30;78.40;;;;;;6155425;23;20009;-90
2022/05/15 12:42:40;;;;;;;13.15;3.92;;;26.70;80.00;;;;;;6155590;23;20025;-89
2022/05/15 12:45:11;;;;;;;12.98;3.85;;;26.90;79.00;;;;;;6156731;23;20017;-90
2022/05/15 12:47:40;;;;;;;11.10;3.42;;;26.90;79.20;;;;;;6155014;23;20072;-88
2022/05/15 12:50:15;;;;;;;11.35;3.40;;;27.20;77.00;;;;;;6155372;23;20061;-88
2022/05/15 12:52:55;;;;;;;12.30;3.55;;;27.00;75.80;;;;;;6154376;23;20401;-90
2022/05/15 12:55:34;;;;;;;14.50;3.97;;;27.40;74.80;;;;;;6155075;23;20025;-89
2022/05/15 12:58:23;;;;;;;12.65;4.07;;;26.90;75.30;;;;;;6155575;23;20018;-91
2022/05/15 13:00:48;;;;;;;11.85;3.58;;;27.50;75.70;;;;;;6129945;23;20021;-89
2022/05/15 13:03:23;;;;;;;11.93;3.35;;;27.40;76.50;;;;;;6154934;23;20036;-90
2022/05/15 13:06:04;;;;;;;14.25;3.42;;;26.90;75.70;;;;;;6153884;23;20047;-90
2022/05/15 13:08:57;;;;;;;11.23;3.78;;;27.00;75.40;;;;;;6156820;23;20446;-91
2022/05/15 13:11:38;;;;;;;12.45;3.50;;;27.00;74.00;;;;;;6154351;23;20346;-90
2022/05/15 13:14:28;;;;;;;11.85;3.70;;;27.10;73.80;;;;;;6155876;23;20025;-89
2022/05/15 13:16:54;;;;;;;13.80;3.80;;;27.10;74.50;;;;;;6156592;23;20536;-90
2022/05/15 13:19:29;;;;;;;13.55;3.95;;;27.20;73.50;;;;;;6156069;23;20013;-88
2022/05/15 13:21:56;;;;;;;10.75;3.60;;;27.20;73.40;;;;;;6157146;23;20021;-89